createdAt,value
2022-07-29T00:00:59.758Z,67.61
2022-07-29T00:03:26.388Z,67.81
2022-07-29T00:05:54.144Z,66.82
2022-07-29T00:08:20.967Z,67.93
2022-07-29T00:10:47.583Z,67.20
2022-07-29T00:13:14.148Z,66.82
2022-07-29T00:15:40.636Z,66.41
2022-07-29T00:18:07.195Z,67.03
2022-07-29T00:20:33.839Z,67.14
2022-07-29T00:23:00.333Z,66.86
2022-07-29T00:25:26.823Z,67.38
2022-07-29T00:27:53.301Z,67.54
2022-07-29T00:30:19.778Z,67.31
2022-07-29T00:32:46.280Z,67.42
2022-07-29T00:35:31.588Z,67.51
2022-07-29T00:38:00.137Z,68.64
2022-07-29T00:40:28.682Z,67.88
2022-07-29T00:42:55.234Z,69.97
2022-07-29T00:45:23.098Z,69.20
2022-07-29T00:47:49.879Z,67.75
2022-07-29T00:50:16.378Z,68.32
2022-07-29T00:52:43.338Z,67.92
2022-07-29T00:55:15.342Z,68.33
2022-07-29T00:57:42.768Z,69.38
2022-07-29T01:00:12.418Z,70.31
2022-07-29T01:02:39.103Z,69.82
2022-07-29T01:05:06.848Z,70.18
2022-07-29T01:07:35.371Z,70.72
2022-07-29T01:10:03.670Z,69.78
2022-07-29T01:12:33.877Z,69.02
2022-07-29T01:15:01.895Z,68.65
2022-07-29T01:17:53.427Z,69.22
2022-07-29T01:20:41.201Z,69.05
2022-07-29T01:23:07.659Z,68.41
2022-07-29T01:25:56.322Z,68.41
2022-07-29T01:28:46.537Z,68.79
2022-07-29T01:31:22.810Z,68.22
2022-07-29T01:33:59.205Z,68.78
2022-07-29T01:36:33.653Z,69.00
2022-07-29T01:39:06.550Z,68.56
2022-07-29T01:41:35.204Z,69.70
2022-07-29T01:44:18.708Z,69.21
2022-07-29T01:46:51.062Z,69.27
2022-07-29T01:49:29.298Z,69.14
2022-07-29T01:51:59.764Z,69.99
2022-07-29T01:54:29.438Z,70.48
2022-07-29T01:56:57.912Z,70.04
2022-07-29T01:59:24.735Z,69.25
2022-07-29T02:01:54.455Z,70.22
2022-07-29T02:04:29.202Z,70.53
2022-07-29T02:06:59.386Z,69.83
2022-07-29T02:09:26.411Z,70.49
2022-07-29T02:11:54.668Z,70.97
2022-07-29T02:14:22.736Z,70.05
2022-07-29T02:16:53.531Z,72.53
2022-07-29T02:19:22.573Z,71.32
2022-07-29T02:21:49.341Z,69.97
2022-07-29T02:24:18.790Z,70.26
2022-07-29T02:26:45.514Z,71.36
2022-07-29T02:29:13.038Z,72.19
2022-07-29T02:31:40.327Z,72.56
2022-07-29T02:34:08.345Z,70.83
2022-07-29T02:36:35.432Z,70.94
2022-07-29T02:39:03.758Z,72.55
2022-07-29T02:41:36.754Z,72.86
2022-07-29T02:44:07.301Z,73.09
2022-07-29T02:46:35.220Z,73.54
2022-07-29T02:49:20.552Z,73.71
2022-07-29T02:51:56.337Z,72.34
2022-07-29T02:54:37.811Z,72.86
2022-07-29T02:57:10.729Z,73.10
2022-07-29T02:59:37.906Z,73.29
2022-07-29T03:02:06.189Z,73.94
2022-07-29T03:04:33.586Z,74.05
2022-07-29T03:07:01.758Z,73.80
2022-07-29T03:09:29.066Z,73.52
2022-07-29T03:11:56.129Z,73.40
2022-07-29T03:14:24.002Z,73.55
2022-07-29T03:16:50.955Z,73.17
2022-07-29T03:19:18.754Z,73.32
2022-07-29T03:21:45.274Z,73.60
2022-07-29T03:24:28.864Z,73.85
2022-07-29T03:26:57.185Z,73.78
2022-07-29T03:29:23.814Z,73.12
2022-07-29T03:31:51.224Z,72.22
2022-07-29T03:34:18.135Z,73.22
2022-07-29T03:36:44.789Z,71.80
2022-07-29T03:39:13.278Z,72.24
2022-07-29T03:41:39.926Z,72.17
2022-07-29T03:44:07.932Z,72.75
2022-07-29T03:46:35.089Z,73.39
2022-07-29T03:49:02.408Z,73.49
2022-07-29T03:51:33.128Z,73.56
2022-07-29T03:54:03.816Z,74.34
2022-07-29T03:56:34.166Z,74.77
2022-07-29T03:59:02.938Z,74.29
2022-07-29T04:01:30.556Z,73.81
2022-07-29T04:03:57.614Z,73.57
2022-07-29T04:06:24.260Z,73.35
2022-07-29T04:08:50.880Z,73.93
2022-07-29T04:11:17.383Z,73.30
2022-07-29T04:13:43.849Z,73.16
2022-07-29T04:16:10.368Z,73.55
2022-07-29T04:18:36.880Z,73.09
2022-07-29T04:21:05.007Z,73.43
2022-07-29T04:23:34.503Z,73.72
2022-07-29T04:26:02.147Z,72.66
2022-07-29T04:28:29.100Z,72.81
2022-07-29T04:30:55.678Z,72.00
2022-07-29T04:33:22.211Z,72.93
2022-07-29T04:35:52.321Z,72.24
2022-07-29T04:38:19.122Z,73.07
2022-07-29T04:40:45.659Z,72.60
2022-07-29T04:43:14.343Z,72.64
2022-07-29T04:45:42.122Z,72.40
2022-07-29T04:48:08.676Z,72.40
2022-07-29T04:50:35.246Z,72.83
2022-07-29T04:53:01.732Z,71.67
2022-07-29T04:55:28.298Z,71.74
2022-07-29T04:57:54.762Z,73.04
2022-07-29T05:00:21.384Z,72.46
2022-07-29T05:02:58.666Z,72.73
2022-07-29T05:05:25.181Z,72.80
2022-07-29T05:07:51.686Z,72.15
2022-07-29T05:10:18.182Z,72.53
2022-07-29T05:12:44.670Z,72.30
2022-07-29T05:15:11.286Z,71.99
2022-07-29T05:17:38.260Z,71.87
2022-07-29T05:20:06.016Z,71.76
2022-07-29T05:22:32.530Z,72.33
2022-07-29T05:24:58.988Z,72.00
2022-07-29T05:27:25.463Z,69.55
2022-07-29T05:29:52.163Z,68.66
2022-07-29T05:32:18.658Z,69.78
2022-07-29T05:34:51.229Z,69.32
2022-07-29T05:37:20.070Z,69.34
2022-07-29T05:39:48.934Z,68.40
2022-07-29T05:42:16.889Z,69.13
2022-07-29T05:44:43.368Z,68.99
2022-07-29T05:47:09.897Z,68.46
2022-07-29T05:49:36.431Z,67.75
2022-07-29T05:52:03.128Z,69.09
2022-07-29T05:54:29.598Z,68.81
2022-07-29T05:56:56.083Z,69.63
2022-07-29T05:59:25.963Z,69.34
2022-07-29T06:01:54.930Z,70.28
2022-07-29T06:04:21.695Z,69.34
2022-07-29T06:06:48.218Z,69.06
2022-07-29T06:09:14.935Z,68.53
2022-07-29T06:11:41.637Z,69.88
2022-07-29T06:14:08.095Z,69.31
2022-07-29T06:16:34.609Z,68.29
2022-07-29T06:19:01.148Z,67.33
2022-07-29T06:21:27.625Z,68.04
2022-07-29T06:23:54.160Z,66.64
2022-07-29T06:26:28.473Z,65.67
2022-07-29T06:28:58.171Z,65.89
2022-07-29T06:31:24.755Z,66.39
2022-07-29T06:33:51.357Z,64.79
2022-07-29T06:36:21.193Z,65.25
2022-07-29T06:38:51.463Z,65.36
2022-07-29T06:41:19.078Z,65.38
2022-07-29T06:43:52.305Z,64.21
2022-07-29T06:46:21.873Z,64.01
2022-07-29T06:48:49.274Z,62.82
2022-07-29T06:51:17.292Z,61.67
2022-07-29T06:54:00.330Z,62.44
2022-07-29T06:56:29.424Z,61.54
2022-07-29T06:58:55.980Z,61.19
2022-07-29T07:01:22.625Z,61.37
2022-07-29T07:03:49.263Z,60.47
2022-07-29T07:06:15.909Z,60.88
2022-07-29T07:08:42.410Z,61.63
2022-07-29T07:11:09.589Z,60.74
2022-07-29T07:13:36.543Z,61.74
2022-07-29T07:16:03.952Z,60.68
2022-07-29T07:18:30.856Z,60.18
2022-07-29T07:20:59.062Z,59.46
2022-07-29T07:23:25.891Z,57.92
2022-07-29T07:25:52.483Z,57.94
2022-07-29T07:28:19.609Z,57.09
2022-07-29T07:30:52.041Z,56.41
2022-07-29T07:33:18.605Z,55.91
2022-07-29T07:35:45.351Z,55.11
2022-07-29T07:38:11.854Z,55.82
2022-07-29T07:40:38.441Z,55.80
2022-07-29T07:43:05.010Z,55.66
2022-07-29T07:45:33.623Z,54.63
2022-07-29T07:48:00.376Z,53.16
2022-07-29T07:50:27.114Z,54.74
2022-07-29T07:52:56.054Z,53.72
2022-07-29T07:55:22.601Z,53.79
2022-07-29T07:57:49.134Z,53.89
2022-07-29T08:00:17.100Z,53.46
2022-07-29T08:02:44.158Z,54.77
2022-07-29T08:05:12.589Z,53.19
2022-07-29T08:07:39.869Z,52.73
2022-07-29T08:10:06.884Z,52.27
2022-07-29T08:12:33.350Z,52.07
2022-07-29T08:14:59.901Z,50.98
2022-07-29T08:17:27.557Z,51.06
2022-07-29T08:19:54.067Z,50.78
2022-07-29T08:22:20.762Z,50.89
2022-07-29T08:24:53.418Z,49.58
2022-07-29T08:27:42.337Z,49.27
2022-07-29T08:30:08.555Z,50.29
2022-07-29T08:32:53.120Z,51.23
2022-07-29T08:35:21.765Z,50.39
2022-07-29T08:37:48.438Z,49.60
2022-07-29T08:40:15.412Z,49.92
2022-07-29T08:42:41.967Z,49.19
2022-07-29T08:45:09.028Z,48.68
2022-07-29T08:47:39.574Z,49.18
2022-07-29T08:50:07.670Z,49.56
2022-07-29T08:52:37.392Z,48.74
2022-07-29T08:55:06.386Z,48.32
2022-07-29T08:57:33.853Z,47.44
2022-07-29T09:00:07.925Z,46.80
2022-07-29T09:02:41.482Z,46.78
2022-07-29T09:05:08.775Z,47.62
2022-07-29T09:07:35.379Z,45.92
2022-07-29T09:10:02.641Z,47.08
2022-07-29T09:12:32.738Z,46.49
2022-07-29T09:15:01.376Z,47.03
2022-07-29T09:17:41.954Z,45.28
2022-07-29T09:20:14.000Z,43.54
2022-07-29T09:22:42.220Z,42.87
2022-07-29T09:25:09.124Z,42.32
2022-07-29T09:27:35.674Z,41.14
2022-07-29T09:30:06.374Z,42.52
2022-07-29T09:32:33.886Z,42.63
2022-07-29T09:35:21.333Z,41.70
2022-07-29T09:37:48.648Z,43.27
2022-07-29T09:40:17.622Z,43.67
2022-07-29T09:42:44.932Z,41.61
2022-07-29T09:45:12.349Z,41.18
2022-07-29T09:47:47.921Z,40.57
2022-07-29T09:50:14.711Z,39.65
2022-07-29T09:52:49.629Z,41.53
2022-07-29T09:55:18.391Z,40.90
2022-07-29T09:57:47.351Z,41.08
2022-07-29T10:00:19.015Z,40.81
2022-07-29T10:02:47.541Z,41.55
2022-07-29T10:05:22.916Z,39.14
2022-07-29T10:07:55.234Z,38.63
2022-07-29T10:10:29.982Z,38.11
2022-07-29T10:13:01.802Z,38.16
2022-07-29T10:15:38.082Z,37.30
2022-07-29T10:18:05.173Z,35.90
2022-07-29T10:20:31.919Z,37.68
2022-07-29T10:22:58.605Z,39.02
2022-07-29T10:25:26.586Z,39.35
2022-07-29T10:27:54.193Z,36.53
2022-07-29T10:30:22.099Z,37.28
2022-07-29T10:33:00.118Z,36.85
2022-07-29T10:35:50.912Z,36.37
2022-07-29T10:38:46.083Z,36.59
2022-07-29T10:42:03.598Z,36.00
2022-07-29T10:44:30.701Z,36.04
2022-07-29T10:46:57.501Z,37.03
2022-07-29T10:49:27.248Z,37.29
2022-07-29T10:52:08.337Z,37.56
2022-07-29T10:54:43.667Z,39.04
2022-07-29T10:57:13.979Z,37.64
2022-07-29T10:59:42.855Z,34.98
2022-07-29T11:02:41.893Z,34.97
2022-07-29T11:05:10.876Z,35.72
2022-07-29T11:07:45.533Z,35.72
2022-07-29T11:10:16.421Z,36.66
2022-07-29T11:12:42.946Z,35.89
2022-07-29T11:15:18.344Z,34.81
2022-07-29T11:17:54.431Z,34.78
2022-07-29T11:20:47.811Z,34.34
2022-07-29T11:23:36.536Z,33.79
2022-07-29T11:26:28.459Z,32.88
2022-07-29T11:29:14.444Z,31.40
2022-07-29T11:31:46.356Z,32.39
2022-07-29T11:34:22.588Z,33.30
2022-07-29T11:37:07.562Z,32.96
2022-07-29T11:39:36.596Z,34.93
2022-07-29T11:42:32.630Z,33.88
2022-07-29T11:45:44.629Z,33.62
2022-07-29T11:48:29.223Z,33.51
2022-07-29T11:50:58.531Z,32.79
2022-07-29T11:53:25.792Z,32.09
2022-07-29T11:55:58.308Z,32.04
2022-07-29T12:01:15.209Z,30.22
2022-07-29T12:03:43.725Z,33.76
2022-07-29T12:06:15.619Z,34.46
2022-07-29T12:07:03.883Z,32.77
2022-07-29T12:08:45.419Z,33.61
2022-07-29T12:11:20.570Z,34.83
2022-07-29T12:13:49.320Z,34.63
2022-07-29T12:16:16.202Z,34.35
2022-07-29T12:19:03.927Z,33.70
2022-07-29T12:21:52.286Z,34.90
2022-07-29T12:24:22.807Z,35.46
2022-07-29T12:26:57.998Z,35.56
2022-07-29T12:29:34.892Z,35.21
2022-07-29T12:32:03.300Z,34.74
2022-07-29T12:34:30.583Z,35.46
2022-07-29T12:36:57.148Z,37.55
2022-07-29T12:39:23.885Z,36.98
2022-07-29T12:41:50.473Z,37.12
2022-07-29T12:44:16.960Z,37.91
2022-07-29T12:46:43.571Z,37.00
2022-07-29T12:49:10.167Z,36.71
2022-07-29T12:51:41.503Z,35.57
2022-07-29T12:54:14.732Z,34.73
2022-07-29T12:56:45.308Z,36.03
2022-07-29T12:59:20.201Z,35.78
2022-07-29T13:01:50.619Z,35.66
2022-07-29T13:04:26.916Z,37.05
2022-07-29T13:07:09.145Z,37.56
2022-07-29T13:09:44.482Z,38.17
2022-07-29T13:12:13.135Z,37.68
2022-07-29T13:14:41.946Z,37.56
2022-07-29T13:17:12.440Z,35.91
2022-07-29T13:19:52.978Z,37.56
2022-07-29T13:22:23.895Z,38.31
2022-07-29T13:24:52.612Z,36.26
2022-07-29T13:27:20.767Z,35.67
2022-07-29T13:29:47.914Z,34.84
2022-07-29T13:32:14.778Z,35.63
2022-07-29T13:34:41.771Z,34.10
2022-07-29T13:37:08.853Z,34.29
2022-07-29T13:39:35.483Z,32.30
2022-07-29T13:42:02.158Z,32.03
2022-07-29T13:44:28.773Z,33.07
2022-07-29T13:46:55.398Z,33.35
2022-07-29T13:49:21.956Z,32.07
2022-07-29T13:51:48.591Z,32.98
2022-07-29T13:54:15.060Z,32.96
2022-07-29T13:56:41.583Z,33.53
2022-07-29T13:59:08.756Z,35.25
2022-07-29T14:01:36.300Z,35.50
2022-07-29T14:04:03.827Z,36.25
2022-07-29T14:06:30.367Z,38.08
2022-07-29T14:08:56.921Z,37.38
2022-07-29T14:11:23.492Z,35.66
2022-07-29T14:13:50.001Z,35.49
2022-07-29T14:16:16.624Z,37.57
2022-07-29T14:18:43.574Z,37.62
2022-07-29T14:21:10.045Z,35.91
2022-07-29T14:23:37.537Z,34.98
2022-07-29T14:26:08.880Z,37.99
2022-07-29T14:28:42.657Z,39.72
2022-07-29T14:31:09.137Z,40.80
2022-07-29T14:33:35.674Z,39.58
2022-07-29T14:36:02.182Z,39.47
2022-07-29T14:38:28.645Z,39.71
2022-07-29T14:40:55.145Z,40.18
2022-07-29T14:43:21.646Z,40.37
2022-07-29T14:45:48.367Z,39.94
2022-07-29T14:48:14.857Z,39.72
2022-07-29T14:50:41.377Z,41.24
2022-07-29T14:53:07.840Z,41.52
2022-07-29T14:55:34.371Z,41.50
2022-07-29T14:58:09.862Z,42.54
2022-07-29T15:00:38.816Z,41.42
2022-07-29T15:03:06.256Z,42.58
2022-07-29T15:05:33.153Z,41.71
2022-07-29T15:08:00.464Z,41.88
2022-07-29T15:10:29.930Z,41.97
2022-07-29T15:12:56.958Z,43.58
2022-07-29T15:15:23.600Z,43.01
2022-07-29T15:17:50.075Z,42.55
2022-07-29T15:20:16.648Z,41.73
2022-07-29T15:22:43.957Z,41.61
2022-07-29T15:25:10.856Z,43.03
2022-07-29T15:27:37.348Z,41.66
2022-07-29T15:30:04.261Z,40.29
2022-07-29T15:32:30.816Z,40.69
2022-07-29T15:34:57.284Z,41.72
2022-07-29T15:37:23.758Z,40.46
2022-07-29T15:39:50.426Z,42.38
2022-07-29T15:42:17.827Z,41.76
2022-07-29T15:44:44.509Z,40.74
2022-07-29T15:47:10.981Z,41.60
2022-07-29T15:49:47.038Z,42.97
2022-07-29T15:52:16.494Z,42.34
2022-07-29T15:54:43.360Z,41.19
2022-07-29T15:57:09.936Z,41.04
2022-07-29T15:59:36.517Z,42.20
2022-07-29T16:02:03.548Z,42.31
2022-07-29T16:04:30.060Z,42.26
2022-07-29T16:06:57.487Z,42.89
2022-07-29T16:09:24.232Z,43.93
2022-07-29T16:11:54.114Z,45.01
2022-07-29T16:14:21.196Z,44.33
2022-07-29T16:16:48.620Z,43.96
2022-07-29T16:19:15.224Z,43.62
2022-07-29T16:21:41.986Z,44.19
2022-07-29T16:24:08.694Z,44.64
2022-07-29T16:26:35.389Z,44.41
2022-07-29T16:29:01.935Z,43.87
2022-07-29T16:31:28.514Z,43.86
2022-07-29T16:33:56.041Z,43.90
2022-07-29T16:36:23.108Z,45.26
2022-07-29T16:38:50.085Z,44.67
2022-07-29T16:41:16.638Z,44.12
2022-07-29T16:43:43.175Z,44.22
2022-07-29T16:46:12.505Z,45.35
2022-07-29T16:48:45.392Z,45.31
2022-07-29T16:51:14.307Z,45.54
2022-07-29T16:53:41.402Z,47.42
2022-07-29T16:56:08.558Z,46.82
2022-07-29T16:58:43.575Z,47.32
2022-07-29T17:01:10.445Z,48.01
2022-07-29T17:03:59.924Z,47.50
2022-07-29T17:06:28.677Z,46.86
2022-07-29T17:08:56.268Z,47.92
2022-07-29T17:11:22.737Z,48.59
2022-07-29T17:14:10.160Z,49.75
2022-07-29T17:16:36.736Z,50.29
2022-07-29T17:19:03.468Z,49.81
2022-07-29T17:21:29.950Z,49.20
2022-07-29T17:23:56.537Z,50.26
2022-07-29T17:26:23.027Z,50.45
2022-07-29T17:28:49.592Z,50.62
2022-07-29T17:31:16.371Z,51.63
2022-07-29T17:33:42.974Z,50.44
2022-07-29T17:36:24.493Z,50.97
2022-07-29T17:38:52.861Z,51.57
2022-07-29T17:41:19.701Z,51.06
2022-07-29T17:43:46.180Z,51.55
2022-07-29T17:46:12.691Z,51.25
2022-07-29T17:48:39.234Z,51.96
2022-07-29T17:51:05.769Z,52.27
2022-07-29T17:53:32.278Z,52.21
2022-07-29T17:55:58.834Z,51.89
2022-07-29T17:58:27.784Z,53.17
2022-07-29T18:00:54.300Z,53.10
2022-07-29T18:03:21.014Z,52.70
2022-07-29T18:05:47.667Z,52.45
2022-07-29T18:08:14.126Z,53.27
2022-07-29T18:10:41.357Z,52.42
2022-07-29T18:13:07.872Z,53.95
2022-07-29T18:15:34.538Z,53.59
2022-07-29T18:18:01.059Z,52.81
2022-07-29T18:20:27.654Z,53.64
2022-07-29T18:22:54.150Z,52.07
2022-07-29T18:25:20.853Z,52.92
2022-07-29T18:27:47.393Z,52.95
2022-07-29T18:30:15.204Z,55.15
2022-07-29T18:32:54.317Z,53.31
2022-07-29T18:35:28.583Z,54.93
2022-07-29T18:38:01.696Z,55.53
2022-07-29T18:40:29.714Z,54.53
2022-07-29T18:42:56.501Z,54.62
2022-07-29T18:45:23.107Z,55.15
2022-07-29T18:47:55.833Z,56.44
2022-07-29T18:50:28.903Z,57.02
2022-07-29T18:52:58.425Z,57.43
2022-07-29T18:55:25.715Z,57.81
2022-07-29T18:57:55.015Z,57.84
2022-07-29T19:00:23.881Z,57.39
2022-07-29T19:02:50.619Z,58.61
2022-07-29T19:05:17.244Z,58.87
2022-07-29T19:07:43.999Z,59.59
2022-07-29T19:10:11.263Z,59.74
2022-07-29T19:12:38.458Z,60.29
2022-07-29T19:15:05.249Z,60.82
2022-07-29T19:17:31.767Z,61.06
2022-07-29T19:19:58.665Z,62.04
2022-07-29T19:22:25.608Z,62.06
2022-07-29T19:24:53.275Z,61.44
2022-07-29T19:27:20.170Z,60.67
2022-07-29T19:29:47.295Z,62.25
2022-07-29T19:32:14.658Z,63.81
2022-07-29T19:35:10.754Z,63.30
2022-07-29T19:37:37.541Z,64.52
2022-07-29T19:40:05.256Z,64.94
2022-07-29T19:42:31.723Z,64.77
2022-07-29T19:44:58.934Z,64.67
2022-07-29T19:47:26.006Z,64.95
2022-07-29T19:49:53.128Z,65.21
2022-07-29T19:52:19.760Z,65.36
2022-07-29T19:54:46.238Z,65.29
2022-07-29T19:57:12.993Z,64.91
2022-07-29T19:59:41.088Z,66.24
2022-07-29T20:02:10.776Z,66.05
2022-07-29T20:04:37.757Z,66.72
2022-07-29T20:07:05.070Z,65.93
2022-07-29T20:09:31.596Z,66.70
2022-07-29T20:11:58.233Z,67.60
2022-07-29T20:14:24.734Z,66.35
2022-07-29T20:16:51.282Z,67.59
2022-07-29T20:19:17.777Z,66.80
2022-07-29T20:21:44.325Z,67.34
2022-07-29T20:24:11.143Z,67.61
2022-07-29T20:26:37.721Z,67.41
2022-07-29T20:29:05.361Z,67.96
2022-07-29T20:31:32.779Z,68.78
2022-07-29T20:34:01.905Z,67.74
2022-07-29T20:36:28.700Z,68.86
2022-07-29T20:38:56.016Z,68.42
2022-07-29T20:41:22.677Z,68.93
2022-07-29T20:43:49.874Z,68.12
2022-07-29T20:46:16.511Z,67.40
2022-07-29T20:48:43.170Z,67.62
2022-07-29T20:51:09.729Z,69.04
2022-07-29T20:53:38.464Z,69.87
2022-07-29T20:56:05.603Z,68.87
2022-07-29T20:58:34.037Z,69.53
2022-07-29T21:01:01.107Z,70.13
2022-07-29T21:03:27.658Z,68.94
2022-07-29T21:05:54.170Z,69.40
2022-07-29T21:08:20.635Z,68.18
2022-07-29T21:10:47.166Z,69.99
2022-07-29T21:13:14.384Z,70.43
2022-07-29T21:15:46.422Z,69.95
2022-07-29T21:18:27.006Z,71.23
2022-07-29T21:20:57.736Z,71.25
2022-07-29T21:23:25.305Z,70.46
2022-07-29T21:25:52.375Z,71.37
2022-07-29T21:28:30.423Z,71.60
2022-07-29T21:30:58.984Z,71.86
2022-07-29T21:33:29.936Z,70.27
2022-07-29T21:36:15.996Z,71.05
2022-07-29T21:38:43.008Z,71.56
2022-07-29T21:41:12.485Z,72.49
2022-07-29T21:43:41.869Z,73.37
2022-07-29T21:46:09.034Z,72.38
2022-07-29T21:48:36.076Z,73.10
2022-07-29T21:51:02.641Z,71.87
2022-07-29T21:53:29.264Z,71.86
2022-07-29T21:55:57.274Z,72.43
2022-07-29T21:58:24.701Z,72.14
2022-07-29T22:00:51.362Z,72.40
2022-07-29T22:03:17.892Z,72.62
2022-07-29T22:05:44.926Z,74.00
2022-07-29T22:08:11.584Z,73.06
2022-07-29T22:10:38.146Z,73.05
2022-07-29T22:13:04.683Z,73.12
2022-07-29T22:15:31.552Z,73.79
2022-07-29T22:17:58.062Z,72.13
2022-07-29T22:20:25.072Z,74.24
2022-07-29T22:22:51.985Z,74.66
2022-07-29T22:25:18.521Z,74.59
2022-07-29T22:27:45.228Z,73.56
2022-07-29T22:30:12.325Z,74.31
2022-07-29T22:32:38.834Z,73.70
2022-07-29T22:35:05.663Z,74.62
2022-07-29T22:37:32.236Z,74.22
2022-07-29T22:39:58.871Z,73.51
2022-07-29T22:42:25.614Z,75.23
2022-07-29T22:44:52.096Z,74.39
2022-07-29T22:47:18.795Z,74.78
2022-07-29T22:50:06.831Z,75.02
2022-07-29T22:52:33.402Z,75.54
2022-07-29T22:55:00.599Z,75.03
2022-07-29T22:57:27.097Z,73.71
2022-07-29T22:59:53.608Z,74.30
2022-07-29T23:02:20.121Z,75.69
2022-07-29T23:04:46.588Z,75.28
2022-07-29T23:07:13.079Z,74.95
2022-07-29T23:09:39.657Z,75.22
2022-07-29T23:12:06.473Z,74.19
2022-07-29T23:14:33.081Z,75.39
2022-07-29T23:17:00.027Z,74.86
2022-07-29T23:19:27.376Z,74.27
2022-07-29T23:21:53.898Z,75.06
2022-07-29T23:24:20.415Z,74.73
2022-07-29T23:26:46.917Z,75.11
2022-07-29T23:29:13.396Z,75.31
2022-07-29T23:31:42.628Z,74.82
2022-07-29T23:34:14.640Z,74.86
2022-07-29T23:36:42.327Z,74.43
2022-07-29T23:39:13.201Z,74.62
2022-07-29T23:41:39.830Z,75.20
2022-07-29T23:44:06.372Z,73.41
2022-07-29T23:46:32.971Z,74.27
2022-07-29T23:48:59.926Z,73.99
2022-07-29T23:51:26.669Z,73.51
2022-07-29T23:53:54.329Z,73.52
2022-07-29T23:56:21.278Z,72.39
2022-07-29T23:58:47.818Z,72.80
